createdAt,value
2023-02-14T00:02:54.795Z,99834.75
2023-02-14T00:07:57.278Z,99824.63
2023-02-14T00:12:59.700Z,99823.34
2023-02-14T00:18:03.201Z,99824.81
2023-02-14T00:23:05.837Z,99834.53
2023-02-14T00:28:08.260Z,99830.59
2023-02-14T00:33:10.873Z,99831.47
2023-02-14T00:38:13.787Z,99832.06
2023-02-14T00:43:16.280Z,99833.91
2023-02-14T00:48:19.043Z,99828.34
2023-02-14T00:53:21.590Z,99829.34
2023-02-14T00:58:25.701Z,99829.16
2023-02-14T01:03:29.942Z,99830.59
2023-02-14T01:08:33.243Z,99832.97
2023-02-14T01:13:35.733Z,99833.13
2023-02-14T01:18:38.911Z,99837.00
2023-02-14T01:23:41.782Z,99832.06
2023-02-14T01:28:44.918Z,99833.91
2023-02-14T01:33:49.540Z,99834.53
2023-02-14T01:38:57.464Z,99824.59
2023-02-14T01:44:27.126Z,99817.09
2023-02-14T01:49:38.383Z,99816.22
2023-02-14T01:54:46.227Z,99816.13
2023-02-14T02:00:17.714Z,99821.31
2023-02-14T02:05:23.902Z,99815.16
2023-02-14T02:10:26.432Z,99816.31
2023-02-14T02:15:34.538Z,99821.91
2023-02-14T02:21:23.794Z,99820.47
2023-02-14T02:26:48.199Z,99818.78
2023-02-14T02:32:24.459Z,99811.38
2023-02-14T02:37:43.036Z,99814.91
2023-02-14T02:43:15.753Z,99811.75
2023-02-14T02:48:23.713Z,99799.69
2023-02-14T02:53:31.822Z,99801.81
2023-02-14T02:58:38.020Z,99806.81
2023-02-14T03:04:02.803Z,99804.59
2023-02-14T03:09:36.113Z,99797.44
2023-02-14T03:15:17.491Z,99799.84
2023-02-14T03:20:35.474Z,99807.47
2023-02-14T03:25:50.238Z,99814.41
2023-02-14T03:31:04.843Z,99817.53
2023-02-14T03:36:20.535Z,99809.25
2023-02-14T03:41:28.691Z,99815.81
2023-02-14T03:46:38.466Z,99816.88
2023-02-14T03:51:46.048Z,99812.25
2023-02-14T03:56:57.800Z,99807.16
2023-02-14T04:02:31.231Z,99802.47
2023-02-14T04:07:46.200Z,99800.97
2023-02-14T04:12:49.477Z,99801.59
2023-02-14T04:18:10.862Z,99801.31
2023-02-14T04:23:13.329Z,99804.63
2023-02-14T04:28:16.029Z,99799.81
2023-02-14T04:33:18.642Z,99799.31
2023-02-14T04:38:21.402Z,99799.63
2023-02-14T04:43:23.854Z,99796.19
2023-02-14T04:48:26.507Z,99793.28
2023-02-14T04:53:28.942Z,99787.63
2023-02-14T04:58:31.346Z,99794.63
2023-02-14T05:03:33.843Z,99798.91
2023-02-14T05:08:36.275Z,99796.28
2023-02-14T05:13:38.701Z,99791.34
2023-02-14T05:18:41.088Z,99792.59
2023-02-14T05:23:43.507Z,99788.13
2023-02-14T05:28:45.858Z,99790.38
2023-02-14T05:33:48.725Z,99789.81
2023-02-14T05:38:51.199Z,99802.22
2023-02-14T05:43:53.597Z,99798.31
2023-02-14T05:48:56.007Z,99794.13
2023-02-14T05:54:00.214Z,99798.34
2023-02-14T05:59:02.673Z,99801.69
2023-02-14T06:04:05.113Z,99804.50
2023-02-14T06:09:07.741Z,99811.88
2023-02-14T06:14:10.379Z,99814.53
2023-02-14T06:19:13.011Z,99806.38
2023-02-14T06:24:15.590Z,99821.59
2023-02-14T06:29:18.403Z,99821.59
2023-02-14T06:34:21.103Z,99826.00
2023-02-14T06:39:23.601Z,99824.97
2023-02-14T06:44:26.268Z,99825.09
2023-02-14T06:49:28.838Z,99819.41
2023-02-14T06:54:31.322Z,99828.44
2023-02-14T06:59:33.681Z,99821.19
2023-02-14T07:04:36.084Z,99824.25
2023-02-14T07:09:38.581Z,99818.41
2023-02-14T07:14:41.287Z,99804.81
2023-02-14T07:19:43.711Z,99816.75
2023-02-14T07:24:46.128Z,99815.75
2023-02-14T07:29:48.835Z,99813.84
2023-02-14T07:34:52.156Z,99807.06
2023-02-14T07:39:54.653Z,99812.03
2023-02-14T07:44:57.251Z,99817.66
2023-02-14T07:49:59.700Z,99823.94
2023-02-14T07:55:02.236Z,99815.16
2023-02-14T08:00:06.407Z,99806.50
2023-02-14T08:05:15.062Z,99804.13
2023-02-14T08:10:18.168Z,99793.84
2023-02-14T08:15:39.350Z,99796.09
2023-02-14T08:20:41.850Z,99795.47
2023-02-14T08:25:44.270Z,99790.69
2023-02-14T08:30:47.509Z,99794.22
2023-02-14T08:35:51.369Z,99794.81
2023-02-14T08:41:03.830Z,99793.44
2023-02-14T08:46:07.615Z,99788.72
2023-02-14T08:51:30.990Z,99794.34
2023-02-14T08:56:33.491Z,99791.78
2023-02-14T09:01:37.202Z,99792.88
2023-02-14T09:06:40.157Z,99781.47
2023-02-14T09:11:42.608Z,99776.16
2023-02-14T09:16:45.077Z,99787.16
2023-02-14T09:21:47.629Z,99781.50
2023-02-14T09:26:50.515Z,99773.72
2023-02-14T09:31:54.464Z,99763.44
2023-02-14T09:37:15.792Z,99756.81
2023-02-14T09:42:27.387Z,99746.31
2023-02-14T09:47:45.838Z,99750.41
2023-02-14T09:52:52.475Z,99739.66
2023-02-14T09:58:17.790Z,99750.44
2023-02-14T10:03:59.949Z,99746.88
2023-02-14T10:09:32.947Z,99730.09
2023-02-14T10:14:40.861Z,99717.13
2023-02-14T10:19:57.868Z,99733.56
2023-02-14T10:25:06.090Z,99724.72
2023-02-14T10:30:19.281Z,99715.09
2023-02-14T10:35:27.666Z,99716.19
2023-02-14T10:40:38.960Z,99717.13
2023-02-14T10:45:46.297Z,99699.34
2023-02-14T10:51:19.171Z,99698.91
2023-02-14T10:56:32.341Z,99699.66
2023-02-14T11:01:35.151Z,99690.09
2023-02-14T11:06:37.587Z,99678.13
2023-02-14T11:11:52.518Z,99672.59
2023-02-14T11:16:56.577Z,99667.25
2023-02-14T11:22:00.535Z,99673.19
2023-02-14T11:27:10.632Z,99653.88
2023-02-14T11:32:23.302Z,99657.72
2023-02-14T11:37:34.461Z,99649.53
2023-02-14T11:42:45.428Z,99647.00
2023-02-14T11:47:47.599Z,99637.78
2023-02-14T11:52:57.172Z,99630.94
2023-02-14T11:58:03.262Z,99628.25
2023-02-14T12:03:06.986Z,99626.47
2023-02-14T12:08:10.296Z,99615.75
2023-02-14T12:13:12.252Z,99605.44
2023-02-14T12:18:23.439Z,99617.22
2023-02-14T12:23:42.099Z,99605.63
2023-02-14T12:29:14.058Z,99600.72
2023-02-14T12:34:19.045Z,99601.09
2023-02-14T12:40:02.380Z,99587.09
2023-02-14T12:45:22.565Z,99582.88
2023-02-14T12:50:46.566Z,99570.03
2023-02-14T12:56:10.829Z,99569.53
2023-02-14T13:01:59.648Z,99571.72
2023-02-14T13:07:26.135Z,99556.00
2023-02-14T13:12:59.084Z,99551.00
2023-02-14T13:18:18.624Z,99537.19
2023-02-14T13:23:47.979Z,99526.22
2023-02-14T13:28:57.709Z,99524.69
2023-02-14T13:34:22.553Z,99529.34
2023-02-14T13:39:39.115Z,99524.50
2023-02-14T13:44:50.237Z,99524.34
2023-02-14T13:50:02.177Z,99514.09
2023-02-14T13:55:09.403Z,99507.28
2023-02-14T14:00:22.257Z,99509.22
2023-02-14T14:05:30.639Z,99509.94
2023-02-14T14:10:55.698Z,99508.28
2023-02-14T14:16:19.966Z,99507.97
2023-02-14T14:21:29.599Z,99512.78
2023-02-14T14:26:37.709Z,99502.31
2023-02-14T14:31:41.808Z,99501.94
2023-02-14T14:36:44.466Z,99490.47
2023-02-14T14:41:47.455Z,99499.00
2023-02-14T14:46:50.842Z,99492.03
2023-02-14T14:51:53.575Z,99488.16
2023-02-14T14:57:03.696Z,99479.16
2023-02-14T15:02:30.480Z,99475.31
2023-02-14T15:07:34.881Z,99477.28
2023-02-14T15:12:56.166Z,99477.75
2023-02-14T15:17:58.720Z,99478.94
2023-02-14T15:23:03.038Z,99484.38
2023-02-14T15:28:05.547Z,99484.81
2023-02-14T15:33:10.785Z,99479.78
2023-02-14T15:38:14.571Z,99478.25
2023-02-14T15:43:22.040Z,99475.16
2023-02-14T15:48:34.765Z,99480.59
2023-02-14T15:53:53.684Z,99470.47
2023-02-14T15:59:17.976Z,99472.06
2023-02-14T16:04:26.912Z,99484.50
2023-02-14T16:09:31.963Z,99482.97
2023-02-14T16:14:36.573Z,99481.41
2023-02-14T16:19:48.416Z,99472.06
2023-02-14T16:24:51.056Z,99475.16
2023-02-14T16:29:53.418Z,99484.31
2023-02-14T16:34:55.438Z,99479.88
2023-02-14T16:39:59.906Z,99486.00
2023-02-14T16:45:02.160Z,99484.00
2023-02-14T16:50:04.311Z,99497.00
2023-02-14T16:55:15.342Z,99494.56
2023-02-14T17:00:17.976Z,99495.38
2023-02-14T17:05:20.469Z,99493.50
2023-02-14T17:10:22.694Z,99502.03
2023-02-14T17:15:27.380Z,99502.16
2023-02-14T17:20:31.109Z,99500.97
2023-02-14T17:25:33.216Z,99518.72
2023-02-14T17:30:38.284Z,99508.50
2023-02-14T17:35:40.332Z,99507.09
2023-02-14T17:40:42.618Z,99500.31
2023-02-14T17:45:44.672Z,99504.91
2023-02-14T17:50:46.705Z,99514.03
2023-02-14T17:55:49.398Z,99515.97
2023-02-14T18:00:51.869Z,99507.41
2023-02-14T18:06:00.864Z,99510.63
2023-02-14T18:11:11.507Z,99511.09
2023-02-14T18:16:19.444Z,99511.19
2023-02-14T18:21:24.543Z,99510.03
2023-02-14T18:26:27.020Z,99505.63
2023-02-14T18:31:29.396Z,99498.81
2023-02-14T18:36:32.388Z,99495.31
2023-02-14T18:41:35.430Z,99502.13
2023-02-14T18:46:37.705Z,99492.13
2023-02-14T18:51:39.848Z,99491.00
2023-02-14T18:56:42.162Z,99488.59
2023-02-14T19:01:45.804Z,99476.09
2023-02-14T19:06:49.585Z,99476.22
2023-02-14T19:11:51.949Z,99481.09
2023-02-14T19:16:55.465Z,99472.22
2023-02-14T19:22:01.562Z,99466.91
2023-02-14T19:27:03.872Z,99472.25
2023-02-14T19:32:06.257Z,99466.13
2023-02-14T19:37:08.555Z,99467.00
2023-02-14T19:42:10.676Z,99446.97
2023-02-14T19:47:27.180Z,99445.25
2023-02-14T19:52:33.233Z,99441.66
2023-02-14T19:57:35.244Z,99443.72
2023-02-14T20:02:37.314Z,99449.59
2023-02-14T20:07:39.336Z,99442.47
2023-02-14T20:12:41.807Z,99443.06
2023-02-14T20:17:43.909Z,99442.78
2023-02-14T20:22:45.927Z,99447.56
2023-02-14T20:27:48.031Z,99441.22
2023-02-14T20:32:51.783Z,99428.72
2023-02-14T20:37:55.075Z,99424.38
2023-02-14T20:42:57.060Z,99418.56
2023-02-14T20:48:03.375Z,99415.16
2023-02-14T20:53:05.465Z,99407.75
2023-02-14T20:58:08.035Z,99400.50
2023-02-14T21:03:10.257Z,99396.41
2023-02-14T21:08:12.266Z,99383.84
2023-02-14T21:13:14.343Z,99388.66
2023-02-14T21:18:16.816Z,99381.19
2023-02-14T21:23:19.058Z,99375.66
2023-02-14T21:28:21.351Z,99376.63
2023-02-14T21:33:25.428Z,99381.13
2023-02-14T21:38:28.429Z,99372.66
2023-02-14T21:43:35.719Z,99365.56
2023-02-14T21:48:58.805Z,99373.84
2023-02-14T21:54:00.948Z,99365.41
2023-02-14T21:59:03.206Z,99357.59
2023-02-14T22:04:09.219Z,99355.91
2023-02-14T22:09:17.592Z,99350.38
2023-02-14T22:14:20.021Z,99355.63
2023-02-14T22:19:22.993Z,99358.84
2023-02-14T22:24:25.482Z,99356.31
2023-02-14T22:29:29.103Z,99345.91
2023-02-14T22:34:31.519Z,99356.47
2023-02-14T22:39:33.606Z,99355.00
2023-02-14T22:44:35.685Z,99341.31
2023-02-14T22:49:37.839Z,99336.66
2023-02-14T22:54:40.219Z,99345.22
2023-02-14T22:59:42.529Z,99338.19
2023-02-14T23:04:44.838Z,99337.75
2023-02-14T23:09:48.655Z,99349.72
2023-02-14T23:15:10.197Z,99333.31
2023-02-14T23:20:31.295Z,99331.03
2023-02-14T23:25:33.706Z,99328.28
2023-02-14T23:30:36.380Z,99332.25
2023-02-14T23:35:38.814Z,99333.94
2023-02-14T23:40:59.983Z,99330.44
2023-02-14T23:46:02.871Z,99338.13
2023-02-14T23:51:05.453Z,99335.91
2023-02-14T23:56:08.089Z,99335.69
